createdAt,value
2023-05-19T00:00:57.910Z,10.10
2023-05-19T00:03:24.819Z,10.00
2023-05-19T00:05:53.753Z,10.00
2023-05-19T00:08:22.571Z,10.00
2023-05-19T00:10:49.308Z,10.00
2023-05-19T00:13:16.057Z,10.00
2023-05-19T00:15:42.872Z,9.90
2023-05-19T00:18:10.016Z,9.90
2023-05-19T00:20:38.035Z,10.00
2023-05-19T00:23:04.621Z,10.00
2023-05-19T00:25:31.169Z,10.00
2023-05-19T00:27:59.153Z,10.00
2023-05-19T00:30:25.864Z,9.90
2023-05-19T00:32:52.548Z,10.00
2023-05-19T00:35:19.805Z,9.90
2023-05-19T00:37:46.704Z,9.80
2023-05-19T00:40:13.528Z,9.80
2023-05-19T00:42:40.711Z,9.70
2023-05-19T00:45:07.572Z,9.60
2023-05-19T00:47:34.448Z,9.60
2023-05-19T00:50:01.105Z,9.50
2023-05-19T00:52:28.172Z,9.50
2023-05-19T00:54:55.481Z,9.50
2023-05-19T00:57:22.152Z,9.50
2023-05-19T00:59:48.850Z,9.60
2023-05-19T01:02:15.540Z,9.60
2023-05-19T01:04:43.755Z,9.60
2023-05-19T01:07:12.430Z,9.60
2023-05-19T01:09:39.447Z,9.50
2023-05-19T01:12:06.260Z,9.50
2023-05-19T01:14:32.928Z,9.50
2023-05-19T01:16:59.521Z,9.50
2023-05-19T01:19:46.713Z,9.40
2023-05-19T01:22:15.323Z,9.40
2023-05-19T01:24:41.902Z,9.30
2023-05-19T01:27:11.532Z,9.30
2023-05-19T01:30:13.794Z,9.30
2023-05-19T01:32:41.336Z,9.30
2023-05-19T01:35:09.116Z,9.30
2023-05-19T01:37:37.074Z,9.30
2023-05-19T01:40:04.043Z,9.30
2023-05-19T01:42:37.100Z,9.20
2023-05-19T01:45:06.506Z,9.10
2023-05-19T01:47:34.993Z,9.10
2023-05-19T01:50:01.614Z,9.00
2023-05-19T01:52:28.216Z,8.90
2023-05-19T01:54:54.895Z,8.80
2023-05-19T01:57:28.172Z,8.70
2023-05-19T02:00:05.508Z,8.60
2023-05-19T02:02:50.829Z,8.50
2023-05-19T02:05:29.464Z,8.40
2023-05-19T02:08:16.369Z,8.30
2023-05-19T02:10:45.587Z,8.20
2023-05-19T02:13:14.144Z,8.00
2023-05-19T02:15:42.254Z,7.90
2023-05-19T02:18:10.201Z,7.90
2023-05-19T02:20:37.132Z,7.80
2023-05-19T02:23:03.970Z,7.70
2023-05-19T02:25:30.744Z,7.70
2023-05-19T02:27:57.952Z,7.70
2023-05-19T02:30:24.653Z,7.60
2023-05-19T02:32:51.288Z,7.60
2023-05-19T02:35:17.909Z,7.60
2023-05-19T02:37:44.474Z,7.60
2023-05-19T02:40:11.168Z,7.60
2023-05-19T02:42:37.818Z,7.50
2023-05-19T02:45:04.676Z,7.50
2023-05-19T02:47:31.279Z,7.40
2023-05-19T02:49:57.907Z,7.30
2023-05-19T02:52:24.589Z,7.40
2023-05-19T02:54:51.394Z,7.30
2023-05-19T02:57:18.054Z,7.40
2023-05-19T02:59:45.019Z,7.40
2023-05-19T03:02:11.803Z,7.30
2023-05-19T03:04:41.729Z,7.20
2023-05-19T03:07:13.198Z,7.10
2023-05-19T03:09:39.903Z,7.00
2023-05-19T03:12:07.632Z,7.00
2023-05-19T03:14:34.763Z,7.00
2023-05-19T03:17:01.702Z,6.90
2023-05-19T03:19:28.411Z,6.90
2023-05-19T03:21:56.381Z,6.90
2023-05-19T03:24:23.067Z,6.90
2023-05-19T03:26:50.288Z,6.90
2023-05-19T03:29:16.882Z,6.80
2023-05-19T03:31:43.507Z,6.70
2023-05-19T03:34:10.130Z,6.60
2023-05-19T03:36:39.367Z,6.60
2023-05-19T03:39:06.833Z,6.70
2023-05-19T03:41:33.447Z,6.70
2023-05-19T03:44:00.134Z,6.80
2023-05-19T03:46:26.850Z,6.90
2023-05-19T03:48:53.494Z,6.80
2023-05-19T03:51:20.060Z,6.70
2023-05-19T03:53:46.946Z,6.60
2023-05-19T03:56:13.925Z,6.50
2023-05-19T03:58:44.835Z,6.50
2023-05-19T04:01:11.453Z,6.50
2023-05-19T04:03:37.992Z,6.50
2023-05-19T04:06:04.629Z,6.60
2023-05-19T04:08:32.097Z,6.60
2023-05-19T04:10:58.738Z,6.60
2023-05-19T04:13:25.384Z,6.60
2023-05-19T04:15:52.199Z,6.60
2023-05-19T04:18:18.789Z,6.70
2023-05-19T04:20:45.504Z,6.60
2023-05-19T04:23:12.129Z,6.60
2023-05-19T04:25:40.830Z,6.60
2023-05-19T04:28:07.630Z,6.60
2023-05-19T04:30:34.648Z,6.60
2023-05-19T04:33:03.830Z,6.60
2023-05-19T04:35:30.720Z,6.60
2023-05-19T04:37:57.314Z,6.60
2023-05-19T04:40:23.954Z,6.70
2023-05-19T04:42:52.281Z,6.70
2023-05-19T04:45:18.999Z,6.80
2023-05-19T04:47:48.143Z,6.80
2023-05-19T04:50:16.302Z,6.90
2023-05-19T04:52:45.485Z,7.00
2023-05-19T04:55:12.986Z,7.00
2023-05-19T04:57:40.228Z,7.10
2023-05-19T05:00:12.168Z,7.20
2023-05-19T05:02:38.875Z,7.40
2023-05-19T05:05:05.733Z,7.50
2023-05-19T05:07:32.631Z,7.60
2023-05-19T05:09:59.702Z,7.70
2023-05-19T05:12:26.582Z,7.70
2023-05-19T05:14:53.294Z,7.70
2023-05-19T05:17:20.412Z,7.70
2023-05-19T05:19:48.439Z,7.70
2023-05-19T05:22:15.352Z,7.80
2023-05-19T05:24:42.034Z,7.90
2023-05-19T05:27:10.160Z,7.90
2023-05-19T05:29:36.914Z,8.00
2023-05-19T05:32:03.765Z,8.00
2023-05-19T05:34:30.472Z,8.10
2023-05-19T05:36:57.105Z,8.20
2023-05-19T05:39:23.714Z,8.30
2023-05-19T05:41:50.389Z,8.50
2023-05-19T05:44:17.003Z,8.60
2023-05-19T05:46:43.756Z,8.60
2023-05-19T05:49:12.437Z,8.70
2023-05-19T05:51:39.271Z,8.70
2023-05-19T05:54:06.342Z,8.70
2023-05-19T05:56:33.921Z,8.90
2023-05-19T05:59:00.712Z,8.90
2023-05-19T06:01:28.135Z,9.00
2023-05-19T06:03:54.840Z,9.20
2023-05-19T06:06:21.492Z,9.20
2023-05-19T06:08:48.131Z,9.30
2023-05-19T06:11:14.734Z,9.40
2023-05-19T06:13:41.467Z,9.50
2023-05-19T06:16:08.142Z,9.60
2023-05-19T06:18:34.801Z,9.80
2023-05-19T06:21:01.766Z,9.80
2023-05-19T06:23:29.181Z,9.90
2023-05-19T06:25:59.824Z,9.90
2023-05-19T06:28:26.420Z,10.10
2023-05-19T06:30:53.087Z,10.20
2023-05-19T06:33:22.079Z,10.30
2023-05-19T06:35:48.722Z,10.40
2023-05-19T06:38:15.548Z,10.50
2023-05-19T06:40:42.240Z,10.60
2023-05-19T06:43:08.871Z,10.60
2023-05-19T06:45:35.510Z,10.70
2023-05-19T06:48:02.186Z,10.80
2023-05-19T06:50:28.778Z,10.90
2023-05-19T06:52:55.471Z,10.90
2023-05-19T06:55:22.093Z,11.00
2023-05-19T06:57:48.736Z,11.00
2023-05-19T07:00:18.372Z,11.00
2023-05-19T07:02:46.920Z,11.10
2023-05-19T07:05:13.979Z,11.30
2023-05-19T07:07:41.754Z,11.40
2023-05-19T07:10:09.015Z,11.50
2023-05-19T07:12:35.705Z,11.60
2023-05-19T07:15:02.345Z,11.60
2023-05-19T07:17:29.073Z,11.70
2023-05-19T07:19:55.830Z,11.80
2023-05-19T07:22:24.044Z,11.80
2023-05-19T07:24:51.144Z,11.90
2023-05-19T07:29:47.003Z,12.20
2023-05-19T07:32:13.738Z,12.30
2023-05-19T07:34:43.558Z,12.30
2023-05-19T07:37:10.292Z,12.50
2023-05-19T07:39:37.035Z,12.70
2023-05-19T07:42:03.883Z,12.70
2023-05-19T07:44:36.755Z,12.90
2023-05-19T07:47:03.922Z,13.20
2023-05-19T07:49:30.722Z,13.20
2023-05-19T07:51:58.193Z,13.30
2023-05-19T07:54:25.073Z,13.30
2023-05-19T07:56:51.908Z,13.40
2023-05-19T07:59:19.551Z,13.50
2023-05-19T08:01:46.420Z,13.60
2023-05-19T08:04:13.442Z,13.90
2023-05-19T08:06:42.651Z,13.90
2023-05-19T08:09:09.596Z,14.00
2023-05-19T08:11:36.616Z,14.10
2023-05-19T08:14:03.428Z,14.20
2023-05-19T08:16:30.037Z,14.40
2023-05-19T08:18:56.780Z,14.50
2023-05-19T08:21:23.480Z,14.60
2023-05-19T08:23:50.128Z,14.70
2023-05-19T08:26:16.846Z,14.80
2023-05-19T08:28:44.217Z,14.80
2023-05-19T08:31:10.921Z,15.00
2023-05-19T08:33:37.521Z,15.20
2023-05-19T08:36:04.404Z,15.20
2023-05-19T08:38:31.089Z,15.30
2023-05-19T08:40:58.680Z,15.30
2023-05-19T08:43:25.578Z,15.50
2023-05-19T08:45:53.974Z,15.70
2023-05-19T08:48:21.628Z,15.60
2023-05-19T08:51:11.596Z,15.60
2023-05-19T08:53:40.480Z,15.80
2023-05-19T08:56:16.050Z,16.20
2023-05-19T08:58:44.150Z,16.30
2023-05-19T09:01:13.188Z,16.20
2023-05-19T09:03:41.094Z,15.70
2023-05-19T09:06:14.208Z,16.10
2023-05-19T09:08:42.215Z,16.50
2023-05-19T09:11:09.547Z,16.50
2023-05-19T09:13:39.320Z,17.10
2023-05-19T09:16:06.473Z,17.50
2023-05-19T09:18:33.457Z,17.80
2023-05-19T09:21:02.634Z,17.70
2023-05-19T09:23:31.540Z,18.10
2023-05-19T09:25:58.193Z,18.20
2023-05-19T09:28:25.434Z,18.40
2023-05-19T09:31:11.132Z,19.40
2023-05-19T09:33:46.243Z,20.50
2023-05-19T09:36:13.468Z,21.40
2023-05-19T09:38:40.549Z,20.80
2023-05-19T09:41:07.726Z,20.60
2023-05-19T09:43:34.734Z,22.10
2023-05-19T09:46:08.296Z,23.40
2023-05-19T09:48:36.265Z,24.50
2023-05-19T09:51:07.999Z,24.30
2023-05-19T09:53:34.812Z,23.40
2023-05-19T09:56:01.922Z,23.40
2023-05-19T09:58:31.927Z,24.40
2023-05-19T10:00:58.992Z,25.00
2023-05-19T10:03:26.188Z,23.80
2023-05-19T10:05:53.181Z,24.20
2023-05-19T10:08:19.985Z,25.00
2023-05-19T10:10:47.550Z,26.00
2023-05-19T10:13:14.678Z,26.20
2023-05-19T10:15:57.199Z,25.90
2023-05-19T10:18:26.701Z,24.80
2023-05-19T10:20:54.157Z,22.60
2023-05-19T10:23:21.034Z,23.10
2023-05-19T10:25:49.092Z,23.10
2023-05-19T10:28:17.368Z,24.70
2023-05-19T10:30:49.395Z,25.40
2023-05-19T10:33:17.319Z,27.00
2023-05-19T10:36:10.871Z,25.80
2023-05-19T10:38:38.521Z,27.60
2023-05-19T10:41:23.727Z,27.40
2023-05-19T10:44:04.691Z,27.50
2023-05-19T10:46:31.682Z,29.40
2023-05-19T10:48:59.245Z,28.00
2023-05-19T10:51:32.202Z,28.40
2023-05-19T10:54:02.705Z,26.30
2023-05-19T10:56:29.962Z,28.50
2023-05-19T10:58:57.145Z,27.00
2023-05-19T11:01:30.104Z,24.30
2023-05-19T11:03:59.481Z,24.70
2023-05-19T11:06:30.466Z,27.20
2023-05-19T11:08:58.298Z,28.80
2023-05-19T11:11:26.303Z,27.20
2023-05-19T11:13:54.957Z,27.40
2023-05-19T11:16:47.933Z,29.60
2023-05-19T11:19:20.576Z,30.30
2023-05-19T11:21:49.061Z,29.90
2023-05-19T11:24:33.800Z,26.80
2023-05-19T11:27:28.892Z,27.70
2023-05-19T11:29:56.594Z,26.40
2023-05-19T11:32:26.692Z,26.30
2023-05-19T11:34:54.895Z,25.70
2023-05-19T11:37:21.615Z,26.20
2023-05-19T11:39:48.493Z,27.40
2023-05-19T11:42:16.346Z,26.00
2023-05-19T11:44:46.409Z,26.50
2023-05-19T11:47:13.606Z,26.80
2023-05-19T11:49:52.035Z,25.30
2023-05-19T11:52:20.960Z,27.40
2023-05-19T11:54:48.181Z,26.30
2023-05-19T11:57:14.853Z,26.70
2023-05-19T11:59:45.551Z,25.80
2023-05-19T12:02:15.368Z,27.00
2023-05-19T12:04:42.068Z,26.70
2023-05-19T12:07:08.829Z,24.70
2023-05-19T12:09:35.710Z,25.00
2023-05-19T12:12:02.626Z,24.90
2023-05-19T12:14:30.061Z,25.10
2023-05-19T12:16:56.939Z,25.50
2023-05-19T12:19:25.727Z,26.10
2023-05-19T12:21:53.482Z,26.30
2023-05-19T12:24:20.516Z,26.50
2023-05-19T12:26:47.135Z,28.00
2023-05-19T12:29:13.773Z,28.60
2023-05-19T12:31:40.453Z,28.90
2023-05-19T12:34:07.086Z,29.60
2023-05-19T12:36:33.834Z,29.20
2023-05-19T12:39:00.613Z,27.50
2023-05-19T12:41:27.337Z,27.50
2023-05-19T12:43:55.049Z,27.10
2023-05-19T12:46:22.709Z,27.00
2023-05-19T12:48:49.742Z,28.30
2023-05-19T12:51:20.279Z,29.00
2023-05-19T12:53:49.820Z,30.10
2023-05-19T12:56:16.987Z,29.60
2023-05-19T12:58:46.787Z,29.00
2023-05-19T13:01:17.942Z,28.50
2023-05-19T13:03:44.884Z,28.90
2023-05-19T13:06:11.739Z,29.90
2023-05-19T13:08:41.341Z,29.00
2023-05-19T13:11:08.041Z,28.50
2023-05-19T13:13:34.622Z,27.60
2023-05-19T13:16:01.226Z,28.10
2023-05-19T13:18:28.001Z,28.00
2023-05-19T13:20:54.696Z,29.60
2023-05-19T13:23:21.528Z,31.10
2023-05-19T13:25:49.300Z,29.60
2023-05-19T13:28:15.981Z,29.00
2023-05-19T13:30:43.385Z,28.00
2023-05-19T13:33:10.066Z,27.40
2023-05-19T13:35:37.998Z,27.10
2023-05-19T13:38:05.579Z,28.70
2023-05-19T13:40:35.323Z,29.50
2023-05-19T13:43:02.899Z,30.10
2023-05-19T13:45:29.568Z,31.60
2023-05-19T13:47:56.571Z,32.60
2023-05-19T13:50:23.300Z,31.30
2023-05-19T13:52:49.893Z,30.70
2023-05-19T13:55:16.579Z,30.80
2023-05-19T14:00:10.888Z,26.80
2023-05-19T14:02:38.248Z,24.80
2023-05-19T14:05:05.882Z,24.80
2023-05-19T14:07:34.665Z,24.10
2023-05-19T14:10:01.744Z,24.20
2023-05-19T14:12:38.064Z,24.40
2023-05-19T14:15:11.437Z,26.70
2023-05-19T14:17:38.273Z,28.90
2023-05-19T14:20:05.177Z,30.30
2023-05-19T14:22:32.234Z,31.10
2023-05-19T14:25:00.348Z,30.70
2023-05-19T14:27:26.890Z,27.80
2023-05-19T14:29:53.448Z,27.10
2023-05-19T14:32:20.587Z,28.70
2023-05-19T14:34:47.395Z,28.90
2023-05-19T14:37:14.054Z,28.50
2023-05-19T14:39:40.685Z,26.90
2023-05-19T14:42:07.339Z,27.80
2023-05-19T14:44:33.918Z,30.00
2023-05-19T14:47:02.008Z,31.70
2023-05-19T14:49:28.722Z,33.20
2023-05-19T14:51:55.398Z,34.10
2023-05-19T14:54:22.166Z,30.90
2023-05-19T14:56:48.810Z,32.10
2023-05-19T14:59:15.542Z,32.10
2023-05-19T15:01:42.234Z,30.00
2023-05-19T15:04:08.883Z,29.40
2023-05-19T15:06:35.502Z,28.30
2023-05-19T15:09:02.058Z,27.70
2023-05-19T15:11:28.630Z,27.00
2023-05-19T15:13:55.160Z,26.40
2023-05-19T15:16:21.750Z,26.40
2023-05-19T15:18:48.388Z,27.50
2023-05-19T15:21:14.986Z,29.30
2023-05-19T15:23:41.524Z,30.00
2023-05-19T15:26:08.056Z,28.80
2023-05-19T15:28:34.572Z,28.40
2023-05-19T15:31:01.295Z,27.50
2023-05-19T15:33:27.864Z,27.80
2023-05-19T15:35:54.527Z,27.50
2023-05-19T15:38:21.212Z,27.00
2023-05-19T15:40:47.952Z,25.90
2023-05-19T15:43:14.597Z,25.30
2023-05-19T15:45:41.438Z,25.20
2023-05-19T15:48:08.321Z,25.30
2023-05-19T15:50:35.309Z,25.50
2023-05-19T15:53:02.250Z,25.80
2023-05-19T15:55:29.032Z,25.70
2023-05-19T15:57:55.648Z,25.80
2023-05-19T16:00:22.212Z,27.70
2023-05-19T16:02:48.792Z,28.80
2023-05-19T16:05:15.500Z,29.70
2023-05-19T16:07:42.204Z,27.00
2023-05-19T16:10:09.188Z,27.50
2023-05-19T16:12:36.602Z,26.40
2023-05-19T16:15:03.444Z,25.20
2023-05-19T16:17:30.069Z,24.90
2023-05-19T16:19:56.734Z,24.80
2023-05-19T16:22:24.618Z,24.40
2023-05-19T16:24:51.657Z,24.20
2023-05-19T16:27:18.832Z,23.70
2023-05-19T16:29:45.598Z,23.50
2023-05-19T16:32:12.391Z,23.10
2023-05-19T16:34:39.514Z,23.00
2023-05-19T16:37:06.195Z,22.90
2023-05-19T16:39:32.819Z,22.90
2023-05-19T16:41:59.398Z,22.90
2023-05-19T16:44:26.279Z,22.70
2023-05-19T16:46:52.858Z,22.60
2023-05-19T16:49:19.508Z,22.60
2023-05-19T16:51:47.565Z,22.60
2023-05-19T16:54:15.582Z,22.30
2023-05-19T16:56:42.193Z,22.10
2023-05-19T16:59:09.088Z,22.20
2023-05-19T17:01:35.802Z,22.10
2023-05-19T17:04:02.486Z,22.20
2023-05-19T17:06:29.098Z,22.10
2023-05-19T17:08:55.707Z,22.20
2023-05-19T17:11:22.282Z,22.10
2023-05-19T17:13:48.808Z,22.20
2023-05-19T17:16:16.191Z,22.30
2023-05-19T17:18:43.607Z,22.50
2023-05-19T17:21:10.530Z,22.70
2023-05-19T17:23:37.787Z,22.90
2023-05-19T17:26:04.450Z,23.00
2023-05-19T17:28:31.064Z,23.30
2023-05-19T17:30:57.773Z,24.80
2023-05-19T17:33:24.629Z,25.60
2023-05-19T17:35:51.349Z,25.10
2023-05-19T17:38:17.906Z,25.50
2023-05-19T17:40:44.510Z,26.20
2023-05-19T17:43:11.242Z,26.30
2023-05-19T17:45:37.832Z,26.10
2023-05-19T17:48:04.732Z,25.80
2023-05-19T17:50:31.539Z,25.70
2023-05-19T17:52:58.391Z,24.80
2023-05-19T17:55:29.511Z,24.20
2023-05-19T17:57:56.391Z,24.40
2023-05-19T18:00:23.697Z,24.40
2023-05-19T18:02:50.685Z,24.30
2023-05-19T18:05:17.513Z,24.10
2023-05-19T18:07:44.318Z,23.80
2023-05-19T18:10:11.607Z,23.30
2023-05-19T18:12:38.196Z,23.00
2023-05-19T18:15:05.012Z,22.60
2023-05-19T18:17:31.631Z,22.40
2023-05-19T18:19:58.218Z,22.30
2023-05-19T18:22:24.830Z,22.00
2023-05-19T18:24:51.998Z,21.90
2023-05-19T18:27:18.604Z,21.70
2023-05-19T18:29:45.217Z,21.50
2023-05-19T18:32:14.326Z,21.40
2023-05-19T18:34:41.071Z,21.30
2023-05-19T18:37:07.644Z,21.10
2023-05-19T18:39:36.563Z,21.00
2023-05-19T18:42:03.121Z,20.90
2023-05-19T18:44:29.714Z,21.00
2023-05-19T18:46:56.333Z,21.20
2023-05-19T18:49:24.804Z,21.50
2023-05-19T18:51:51.696Z,21.50
2023-05-19T18:54:19.371Z,21.50
2023-05-19T18:56:46.053Z,21.40
2023-05-19T18:59:12.968Z,21.20
2023-05-19T19:01:39.773Z,21.10
2023-05-19T19:04:06.521Z,20.90
2023-05-19T19:06:33.082Z,20.80
2023-05-19T19:08:59.695Z,20.50
2023-05-19T19:11:26.364Z,20.30
2023-05-19T19:13:55.433Z,20.20
2023-05-19T19:16:22.406Z,20.10
2023-05-19T19:18:49.107Z,20.00
2023-05-19T19:21:15.764Z,19.90
2023-05-19T19:23:42.374Z,19.70
2023-05-19T19:26:09.406Z,19.60
2023-05-19T19:28:36.462Z,19.60
2023-05-19T19:31:03.085Z,19.40
2023-05-19T19:33:29.707Z,19.30
2023-05-19T19:35:56.402Z,19.20
2023-05-19T19:38:23.000Z,19.20
2023-05-19T19:40:50.887Z,19.10
2023-05-19T19:43:17.463Z,19.00
2023-05-19T19:45:44.099Z,18.90
2023-05-19T19:48:11.871Z,18.80
2023-05-19T19:50:38.556Z,18.60
2023-05-19T19:53:05.354Z,18.50
2023-05-19T19:55:31.989Z,18.40
2023-05-19T19:57:58.634Z,18.30
2023-05-19T20:00:25.431Z,18.20
2023-05-19T20:03:04.527Z,18.10
2023-05-19T20:05:32.445Z,18.00
2023-05-19T20:07:59.104Z,17.90
2023-05-19T20:10:25.708Z,17.80
2023-05-19T20:12:52.491Z,17.70
2023-05-19T20:15:19.126Z,17.60
2023-05-19T20:17:45.883Z,17.50
2023-05-19T20:20:12.704Z,17.50
2023-05-19T20:22:39.293Z,17.30
2023-05-19T20:25:06.225Z,17.30
2023-05-19T20:27:34.722Z,17.20
2023-05-19T20:30:01.454Z,17.10
2023-05-19T20:32:28.071Z,17.00
2023-05-19T20:34:54.661Z,17.00
2023-05-19T20:37:22.194Z,16.90
2023-05-19T20:39:48.776Z,16.80
2023-05-19T20:42:15.396Z,16.80
2023-05-19T20:44:42.135Z,16.70
2023-05-19T20:47:08.925Z,16.60
2023-05-19T20:49:35.931Z,16.60
2023-05-19T20:52:02.565Z,16.50
2023-05-19T20:54:29.195Z,16.50
2023-05-19T20:56:55.753Z,16.40
2023-05-19T20:59:22.462Z,16.30
2023-05-19T21:01:49.264Z,16.20
2023-05-19T21:04:15.943Z,16.20
2023-05-19T21:06:42.672Z,16.10
2023-05-19T21:09:10.509Z,16.00
2023-05-19T21:11:37.158Z,16.00
2023-05-19T21:14:04.087Z,16.00
2023-05-19T21:16:31.309Z,15.90
2023-05-19T21:18:58.064Z,15.90
2023-05-19T21:21:24.962Z,15.90
2023-05-19T21:23:51.728Z,15.80
2023-05-19T21:26:18.254Z,15.80
2023-05-19T21:28:44.806Z,15.70
2023-05-19T21:31:11.513Z,15.60
2023-05-19T21:33:38.152Z,15.50
2023-05-19T21:36:04.922Z,15.40
2023-05-19T21:38:31.597Z,15.30
2023-05-19T21:40:58.153Z,15.20
2023-05-19T21:43:24.751Z,15.10
2023-05-19T21:45:51.289Z,15.10
2023-05-19T21:48:18.101Z,15.00
2023-05-19T21:50:44.709Z,14.90
2023-05-19T21:53:11.397Z,14.80
2023-05-19T21:55:39.162Z,14.80
2023-05-19T21:58:05.761Z,14.90
2023-05-19T22:00:32.542Z,14.80
2023-05-19T22:02:59.418Z,14.70
2023-05-19T22:05:26.528Z,14.70
2023-05-19T22:07:53.104Z,14.60
2023-05-19T22:10:19.736Z,14.50
2023-05-19T22:12:46.378Z,14.60
2023-05-19T22:15:14.350Z,14.60
2023-05-19T22:17:41.088Z,14.50
2023-05-19T22:20:08.147Z,14.40
2023-05-19T22:22:35.092Z,14.40
2023-05-19T22:25:02.390Z,14.30
2023-05-19T22:27:29.002Z,14.20
2023-05-19T22:29:55.634Z,14.20
2023-05-19T22:32:22.227Z,14.20
2023-05-19T22:34:48.870Z,14.10
2023-05-19T22:37:15.653Z,14.10
2023-05-19T22:39:42.245Z,14.10
2023-05-19T22:42:08.881Z,14.10
2023-05-19T22:44:35.404Z,14.10
2023-05-19T22:47:01.952Z,14.00
2023-05-19T22:49:29.976Z,13.90
2023-05-19T22:51:56.616Z,13.90
2023-05-19T22:54:23.214Z,13.90
2023-05-19T22:56:49.800Z,13.80
2023-05-19T22:59:19.604Z,13.80
2023-05-19T23:01:46.552Z,13.70
2023-05-19T23:04:13.888Z,13.70
2023-05-19T23:06:40.756Z,13.60
2023-05-19T23:09:07.690Z,13.50
2023-05-19T23:11:35.708Z,13.50
2023-05-19T23:14:02.275Z,13.40
2023-05-19T23:16:28.872Z,13.40
2023-05-19T23:18:55.568Z,13.30
2023-05-19T23:21:22.211Z,13.30
2023-05-19T23:23:49.278Z,13.20
2023-05-19T23:26:15.841Z,13.20
2023-05-19T23:28:42.778Z,13.10
2023-05-19T23:31:09.555Z,13.10
2023-05-19T23:33:36.195Z,13.00
2023-05-19T23:36:07.644Z,13.00
2023-05-19T23:38:34.592Z,13.00
2023-05-19T23:41:01.094Z,13.00
2023-05-19T23:45:58.562Z,12.90
2023-05-19T23:48:25.233Z,12.90
2023-05-19T23:50:51.838Z,12.80
2023-05-19T23:53:18.429Z,12.90
2023-05-19T23:55:45.097Z,12.90
2023-05-19T23:58:11.685Z,12.90
